San Diego International Airport
KSAN : now visible

Airfield :











YOU CAN JOIN US ON...

 
LOGIN :

Register | Disclaimer

   EN    FR    IT 

 









Legend :    VFR   Marginal VFR   IFR   Intensive IFR   Very Intensive IFR
Visi :
Ceiling :
>= 8 km
>= 3000ft
5 to 8 km
1000 to 3000 ft
1500m to 5 km
500 to 1000 ft
800 to 1500m
200 to 500 ft
< 800m
< 200 ft
Symbols :   Thunderstorms  Fog  Heavy snow  Heavy precipitations  Wind > 20 kt






- Airport Elevation : 17 ft
- IATA code : SAN


KSAN - San Diego International

CURRENT METAR :
  • 241104Z 00000KT 10SM BKN027 13/11 A3025 RMK AO2 T01280106 $

EXPIRED METARs :
  • 241051Z 00000KT 10SM SCT028 13/11 A3025 RMK AO2 SLP242 T01330106 $
  • 241007Z 11004KT 10SM FEW019 SCT029 13/11 A3026 RMK AO2 T01330106 $
  • 240951Z 09004KT 10SM BKN019 BKN029 13/11 A3027 RMK AO2 SLP248 T01280106 $
  • 240909Z 00000KT 10SM BKN018 13/11 A3028 RMK AO2 T01330106 $
  • 240851Z 00000KT 10SM SCT019 13/11 A3028 RMK AO2 SLP253 T01280106 53002 $

TAF KSAN
Valid from the 24 at 10:00 until the 25 at 12:00 UTC


241001Z 2410/2512 VRB05KT P6SM BKN020
FM241600 VRB05KT P6SM SCT020
FM242000 29009KT P6SM FEW250
FM250300 VRB05KT P6SM SKC



MET'MAP, your aeronautical weather chart ! - Copyright ORBIFLY December 2007 - Disclaimer

ORBIFLY MET'MAP TEAM :

Programming & Development : Alexandra Zaïnal
Concept & original design : Baudouin d'Aumeries
Assistance for programming : Marc-Olivier Méhu
Technical & hardware support : Manuel Goepfert

Contact : metmap@orbifly.com




SOURCES & CREDITS :

   NOAA       Earth
Advisory